sensor_id;sensor_type;location;lat;lon;timestamp;P1;durP1;ratioP1;P2;durP2;ratioP2
69925;SDS011;57217;47.286;8.530;2024-03-08T00:09:45;28.23;;;15.02;;
69925;SDS011;57217;47.286;8.530;2024-03-08T00:39:47;25.63;;;12.65;;
69925;SDS011;57217;47.286;8.530;2024-03-08T01:09:51;26.48;;;14.20;;
69925;SDS011;57217;47.286;8.530;2024-03-08T01:39:54;28.50;;;14.02;;
69925;SDS011;57217;47.286;8.530;2024-03-08T02:09:57;32.55;;;17.08;;
69925;SDS011;57217;47.286;8.530;2024-03-08T02:40:01;35.60;;;18.53;;
69925;SDS011;57217;47.286;8.530;2024-03-08T03:10:03;52.47;;;26.15;;
69925;SDS011;57217;47.286;8.530;2024-03-08T03:40:07;41.72;;;21.38;;
69925;SDS011;57217;47.286;8.530;2024-03-08T04:10:10;35.47;;;17.73;;
69925;SDS011;57217;47.286;8.530;2024-03-08T04:40:14;31.50;;;17.77;;
69925;SDS011;57217;47.286;8.530;2024-03-08T05:10:17;32.90;;;17.35;;
69925;SDS011;57217;47.286;8.530;2024-03-08T05:40:19;26.90;;;15.00;;
69925;SDS011;57217;47.286;8.530;2024-03-08T06:10:22;27.30;;;14.80;;
69925;SDS011;57217;47.286;8.530;2024-03-08T06:40:24;23.25;;;13.50;;
69925;SDS011;57217;47.286;8.530;2024-03-08T07:10:28;29.08;;;16.10;;
69925;SDS011;57217;47.286;8.530;2024-03-08T07:40:30;24.58;;;14.27;;
69925;SDS011;57217;47.286;8.530;2024-03-08T08:10:34;17.58;;;10.25;;
69925;SDS011;57217;47.286;8.530;2024-03-08T08:40:36;18.17;;;9.85;;
69925;SDS011;57217;47.286;8.530;2024-03-08T09:10:39;21.33;;;11.95;;
69925;SDS011;57217;47.286;8.530;2024-03-08T09:40:42;17.65;;;10.65;;
69925;SDS011;57217;47.286;8.530;2024-03-08T10:10:44;17.33;;;8.77;;
69925;SDS011;57217;47.286;8.530;2024-03-08T10:40:47;14.45;;;9.27;;
69925;SDS011;57217;47.286;8.530;2024-03-08T11:10:54;13.57;;;8.82;;
69925;SDS011;57217;47.286;8.530;2024-03-08T11:40:59;19.23;;;12.20;;
69925;SDS011;57217;47.286;8.530;2024-03-08T12:11:01;17.95;;;12.90;;
69925;SDS011;57217;47.286;8.530;2024-03-08T12:41:08;17.10;;;11.35;;
69925;SDS011;57217;47.286;8.530;2024-03-08T13:11:10;21.08;;;11.82;;
69925;SDS011;57217;47.286;8.530;2024-03-08T13:41:16;19.67;;;11.90;;
69925;SDS011;57217;47.286;8.530;2024-03-08T14:11:18;17.40;;;11.15;;
69925;SDS011;57217;47.286;8.530;2024-03-08T14:41:21;11.32;;;8.88;;
69925;SDS011;57217;47.286;8.530;2024-03-08T15:11:26;10.90;;;8.55;;
69925;SDS011;57217;47.286;8.530;2024-03-08T15:41:28;16.67;;;10.13;;
69925;SDS011;57217;47.286;8.530;2024-03-08T16:11:31;12.93;;;9.03;;
69925;SDS011;57217;47.286;8.530;2024-03-08T16:41:35;13.07;;;7.63;;
69925;SDS011;57217;47.286;8.530;2024-03-08T17:11:38;12.77;;;9.52;;
69925;SDS011;57217;47.286;8.530;2024-03-08T17:41:40;17.80;;;10.25;;
69925;SDS011;57217;47.286;8.530;2024-03-08T18:11:43;17.73;;;11.13;;
69925;SDS011;57217;47.286;8.530;2024-03-08T18:41:45;19.30;;;11.68;;
69925;SDS011;57217;47.286;8.530;2024-03-08T19:11:50;18.73;;;12.10;;
69925;SDS011;57217;47.286;8.530;2024-03-08T19:41:53;19.80;;;12.97;;
69925;SDS011;57217;47.286;8.530;2024-03-08T20:11:57;23.20;;;13.88;;
69925;SDS011;57217;47.286;8.530;2024-03-08T20:42:00;21.40;;;13.23;;
69925;SDS011;57217;47.286;8.530;2024-03-08T21:12:02;18.15;;;11.45;;
69925;SDS011;57217;47.286;8.530;2024-03-08T21:42:08;18.60;;;11.13;;
69925;SDS011;57217;47.286;8.530;2024-03-08T22:12:10;18.63;;;12.18;;
69925;SDS011;57217;47.286;8.530;2024-03-08T22:42:12;20.83;;;12.75;;
69925;SDS011;57217;47.286;8.530;2024-03-08T23:12:15;30.25;;;20.02;;
69925;SDS011;57217;47.286;8.530;2024-03-08T23:42:18;26.02;;;15.68;;
